Pagina principale
METAR-TAF:

METAR-TAF

Aeroporti :

San Gallo, Svizzera

latitudine: 47-29-06N, longitudine: 009-33-43E, altezza: 398 m

Osservazione

Il bollettino è stato emesso 32 minuti fa, alle 22:20 UTC
Vento 1 kt da direzioni variabili
Temperature 14°C
Umidità 94%
Pressione 1021 hPa
Visibilità 10 km o più
nessuna nube inferiore a 1500 m e nessun cumulonembo

METAR: LSZR 162220Z AUTO VRB01KT CAVOK 14/13 Q1021

Ora: 00:52 (22:52 UTC)

Previsione

Il bollettino è stato emesso 8 ore e 27 minuti fa, alle 14:25 UTC
Previsione valida dal 16 alle 15 UTC al 16 alle 24 UTC
Vento 3 kt da direzioni variabili
Visibilità 10 km o più
Nubi sparse ad un'altezza di 3000 ft
Nuvoloso ad un'altezza di 9000 ft
Evoluzione graduale
dal 16 alle 16 UTC al 16 alle 19 UTC
Visibilità 10 km o più
nessuna nube inferiore a 1500 m e nessun cumulonembo

TAF: LSZR 161425Z 1615/1624 VRB03KT 9999 SCT030 BKN090 BECMG 1616/1619 CAVOK

Osservazioni e previsioni meteorologiche di più di 4000 aeroporti (messaggi METAR e TAF).

Le stazioni disponibili sono rappresentate dai dischi gialli e rossi sulla carta.

Puntare il mouse per vedere il nome della stazione.

Clicca sopra per visualizzare le osservazioni e previsioni meteorologiche.

Per cambiare la mappa : fare clic sui pulsanti verdi con una croce nera per ingrandire, il pulsante verde con un trattino per diminuire, o sulla freccia verde per le mappe adiacenti.


METAR-TAF: